KBPI/BPI METAR and TAF weather

Enter ICAO airport designator
Station Type Date Time Source
KBPI METAR 2020/02/21 14:53 UTC NOAA

KBPI 211453Z AUTO 07003KT 10SM CLR M30/M33 A3037 RMK AO2 SLP458 T13001333 53004


Station Type Date Time Source
KBPI Decoded METAR 2020/02/21 14:53 UTC NOAA

BIG PINEY-MARBLETON AIRPORT, WY, United States (KBPI) 42-35N 110-06W 2117M
Feb 21, 2020 - 09:53 AM EST / 2020.02.21 1453 UTC
Wind: from the ENE (070 degrees) at 3 MPH (3 KT):0
Visibility: 10 mile(s):0
Sky conditions: clear
Temperature: -22.0 F (-30.0 C)
Dew Point: -27.9 F (-33.3 C)
Relative Humidity: 72%
Pressure (altimeter): 30.37 in. Hg (1028 hPa)
Pressure tendency: 0.01 inches (0.4 hPa) higher than three hours ago
ob: KBPI 211453Z AUTO 07003KT 10SM CLR M30/M33 A3037 RMK AO2 SLP458 T13001333 53004
cycle: 15

Station Type Date Time Source
KBPI TAF 2020/02/21 12:22 UTC NOAA

TAF KBPI 211120Z 2112/2212 VRB04KT P6SM VCFG SCT005
FM211700 VRB03KT P6SM FEW200

Example: see airport list